Search for airport 
image banner adimage banner ad
image banner ad

SVPG - El Progreso Airport

Located in Peninsula De Paraguana, Venezuela

ICAO - SVPG, IATA -

Data provided by Airmate  

General information

Coordinates: N11°57'37" W70°32'16"
Elevation is 984 feet MSL.
 
View others Airports in Apure

Operational data

Open for public use
Current time UTC:
Current local time:
TAF: TAF SVJC 251000Z 2512/2612 11006KT 9999 FEW016 TX34/2519Z TN24/2508Z BECMG 2512/2516 09007KT 9999 SCT016
View NOTAMs / SUP AIP / TFR affecting this airport [VIEW]
Communications frequencies: [VIEW]

Runways:

Airport contact information

Address: Peninsula De Paraguana Venezuela

Satellite view of SVPG